Time;durP1;ratioP1;P1;durP2;ratioP2;P2;SDS_P1;SDS_P2;PMS_P1;PMS_P2;Temp;Humidity;BMP_temperature;BMP_pressure;BME280_temperature;BME280_humidity;BME280_pressure;Samples;Min_cycle;Max_cycle;Signal;HPM_P1;HPM_P2
2021/10/23 00:04:21;;;;;;;4.05;0.80;;;;;;;;;;21001519;28;20150;-69
2021/10/23 00:14:23;;;;;;;3.05;0.73;;;;;;;;;;20999921;28;20132;-67
2021/10/23 00:24:25;;;;;;;1.48;0.80;;;;;;;;;;20999807;28;20087;-69
2021/10/23 00:34:27;;;;;;;2.55;0.90;;;;;;;;;;20998759;28;20076;-69
2021/10/23 00:44:30;;;;;;;1.77;0.85;;;;;;;;;;20997511;28;20045;-69
2021/10/23 00:54:33;;;;;;;2.22;0.85;;;;;;;;;;20997352;28;20527;-66
2021/10/23 01:04:36;;;;;;;1.38;1.00;;;;;;;;;;20996469;28;20093;-63
2021/10/23 01:14:39;;;;;;;2.60;0.98;;;;;;;;;;20996140;28;20373;-68
2021/10/23 01:24:42;;;;;;;1.48;0.77;;;;;;;;;;20996418;28;20056;-63
2021/10/23 01:34:45;;;;;;;1.02;0.75;;;;;;;;;;20995400;28;20056;-64
2021/10/23 01:44:52;;;;;;;3.72;0.77;;;;;;;;;;20994203;28;20056;-67
2021/10/23 01:54:55;;;;;;;2.08;0.80;;;;;;;;;;20994210;28;20057;-65
2021/10/23 02:04:59;;;;;;;1.08;0.60;;;;;;;;;;20994202;28;20107;-64
2021/10/23 02:15:03;;;;;;;1.83;0.80;;;;;;;;;;20994468;28;20127;-66
2021/10/23 02:25:05;;;;;;;1.88;0.75;;;;;;;;;;20993484;28;20128;-68
2021/10/23 02:35:09;;;;;;;2.13;1.00;;;;;;;;;;20999854;28;20084;-69
2021/10/23 02:45:30;;;;;;;1.55;0.80;;;;;;;;;;20992840;28;20053;-65
2021/10/23 02:55:52;;;;;;;2.13;1.10;;;;;;;;;;21006901;28;20057;-62
2021/10/23 03:06:17;;;;;;;2.10;1.00;;;;;;;;;;21005670;28;20049;-60
2021/10/23 03:16:27;;;;;;;1.10;0.65;;;;;;;;;;21006432;28;20189;-62
2021/10/23 03:26:40;;;;;;;1.60;0.80;;;;;;;;;;21004489;28;20053;-66
2021/10/23 03:36:50;;;;;;;1.80;1.00;;;;;;;;;;21003685;28;20417;-68
2021/10/23 03:46:55;;;;;;;1.88;0.90;;;;;;;;;;21001594;28;20080;-68
2021/10/23 03:57:03;;;;;;;1.73;1.08;;;;;;;;;;21001627;28;20056;-69
2021/10/23 04:07:08;;;;;;;3.38;1.40;;;;;;;;;;21000903;28;20052;-67
2021/10/23 04:17:13;;;;;;;1.23;0.90;;;;;;;;;;21001422;28;20183;-68
2021/10/23 04:27:17;;;;;;;1.90;1.10;;;;;;;;;;21005417;28;20308;-66
2021/10/23 04:37:23;;;;;;;2.20;1.10;;;;;;;;;;21001360;28;20052;-68
2021/10/23 04:47:28;;;;;;;2.20;0.98;;;;;;;;;;20997751;28;20044;-69
2021/10/23 04:57:34;;;;;;;3.22;1.13;;;;;;;;;;20997281;28;20049;-67
2021/10/23 05:07:37;;;;;;;5.28;1.50;;;;;;;;;;20997453;28;20138;-68
2021/10/23 05:17:40;;;;;;;2.70;1.40;;;;;;;;;;20987397;28;20048;-68
2021/10/23 05:27:42;;;;;;;2.13;1.13;;;;;;;;;;20995545;28;20218;-62
2021/10/23 05:37:44;;;;;;;2.83;0.98;;;;;;;;;;20994974;28;20045;-62
2021/10/23 05:47:47;;;;;;;4.22;2.05;;;;;;;;;;20994519;28;20084;-69
2021/10/23 05:57:49;;;;;;;2.85;1.50;;;;;;;;;;20994753;28;20492;-69
2021/10/23 06:07:51;;;;;;;6.10;3.00;;;;;;;;;;20995493;28;20056;-68
2021/10/23 06:17:53;;;;;;;4.55;1.30;;;;;;;;;;21009843;28;20049;-67
2021/10/23 06:27:58;;;;;;;3.40;1.90;;;;;;;;;;21009003;28;20100;-69
2021/10/23 06:38:03;;;;;;;3.10;1.90;;;;;;;;;;21008297;28;20055;-67
2021/10/23 06:48:05;;;;;;;5.60;2.03;;;;;;;;;;21008440;28;20056;-64
2021/10/23 06:58:07;;;;;;;7.28;1.48;;;;;;;;;;21007032;28;20091;-67
2021/10/23 07:08:10;;;;;;;5.30;2.25;;;;;;;;;;21005422;28;20055;-67
2021/10/23 07:18:12;;;;;;;2.38;1.20;;;;;;;;;;21004307;28;20052;-67
2021/10/23 07:28:16;;;;;;;2.77;0.97;;;;;;;;;;21004445;28;20051;-67
2021/10/23 07:38:19;;;;;;;2.50;1.23;;;;;;;;;;21003352;28;20044;-65
2021/10/23 07:48:21;;;;;;;4.30;1.60;;;;;;;;;;21002718;28;20461;-67
2021/10/23 07:58:25;;;;;;;2.20;1.30;;;;;;;;;;21001557;28;20048;-67
2021/10/23 08:08:28;;;;;;;4.72;1.80;;;;;;;;;;21000555;28;20056;-67
2021/10/23 08:18:32;;;;;;;4.97;1.40;;;;;;;;;;20999940;28;20052;-67
2021/10/23 08:28:36;;;;;;;5.65;1.27;;;;;;;;;;21000366;28;20052;-69
2021/10/23 08:38:39;;;;;;;2.97;1.52;;;;;;;;;;20999325;28;20048;-68
2021/10/23 08:48:45;;;;;;;3.25;1.50;;;;;;;;;;20998155;28;20052;-69
2021/10/23 08:58:47;;;;;;;6.68;2.33;;;;;;;;;;21003201;28;20044;-67
2021/10/23 09:09:07;;;;;;;6.32;1.92;;;;;;;;;;20997333;28;20056;-69
2021/10/23 09:19:10;;;;;;;3.45;1.85;;;;;;;;;;20997418;28;20135;-68
2021/10/23 09:29:25;;;;;;;4.17;1.87;;;;;;;;;;20996437;28;20049;-62
2021/10/23 09:39:36;;;;;;;3.83;2.40;;;;;;;;;;20994724;28;20412;-68
2021/10/23 09:49:40;;;;;;;7.38;2.63;;;;;;;;;;21009912;28;20080;-63
2021/10/23 09:59:42;;;;;;;4.97;2.50;;;;;;;;;;21011036;28;20088;-67
2021/10/23 10:09:46;;;;;;;6.05;2.17;;;;;;;;;;21011900;28;20068;-65
2021/10/23 10:19:49;;;;;;;2.83;1.80;;;;;;;;;;21008863;28;20131;-62
2021/10/23 10:29:56;;;;;;;5.07;1.60;;;;;;;;;;21007501;28;20489;-66
2021/10/23 10:40:12;;;;;;;3.80;1.80;;;;;;;;;;21007833;28;20052;-62
2021/10/23 10:50:33;;;;;;;9.82;1.60;;;;;;;;;;21007651;28;20499;-63
2021/10/23 11:00:45;;;;;;;5.47;2.17;;;;;;;;;;21022585;28;20053;-62
2021/10/23 11:10:54;;;;;;;4.25;1.45;;;;;;;;;;21013400;28;20128;-69
2021/10/23 11:20:56;;;;;;;5.30;1.85;;;;;;;;;;21003828;28;20044;-63
2021/10/23 11:30:58;;;;;;;4.60;1.70;;;;;;;;;;21003701;28;20060;-64
2021/10/23 11:41:01;;;;;;;4.47;1.40;;;;;;;;;;21003587;28;20142;-61
2021/10/23 11:51:03;;;;;;;3.05;1.30;;;;;;;;;;21002513;28;20123;-62
2021/10/23 12:01:07;;;;;;;4.47;1.80;;;;;;;;;;21004467;28;20143;-70
2021/10/23 12:11:29;;;;;;;3.55;2.08;;;;;;;;;;20999633;28;20510;-67
2021/10/23 12:21:37;;;;;;;3.40;1.52;;;;;;;;;;21000813;28;20052;-69
2021/10/23 12:31:56;;;;;;;1.83;1.15;;;;;;;;;;21000798;28;20497;-69
2021/10/23 12:41:59;;;;;;;2.88;1.10;;;;;;;;;;20998405;28;20048;-67
2021/10/23 12:52:02;;;;;;;1.98;1.00;;;;;;;;;;20998036;28;20051;-67
2021/10/23 13:02:04;;;;;;;3.35;1.48;;;;;;;;;;20996274;28;20390;-70
2021/10/23 13:12:07;;;;;;;2.63;1.52;;;;;;;;;;20995712;28;20389;-69
2021/10/23 13:22:12;;;;;;;5.57;1.48;;;;;;;;;;20995845;28;20075;-68
2021/10/23 13:32:15;;;;;;;3.70;1.37;;;;;;;;;;20994375;28;20404;-68
2021/10/23 13:42:18;;;;;;;2.40;0.85;;;;;;;;;;20995179;28;20075;-66
2021/10/23 13:52:22;;;;;;;2.53;0.90;;;;;;;;;;20996426;28;20449;-70
2021/10/23 14:02:24;;;;;;;3.47;1.20;;;;;;;;;;20993339;28;20059;-68
2021/10/23 14:12:26;;;;;;;5.75;3.60;;;;;;;;;;20994120;28;20550;-67
2021/10/23 14:22:28;;;;;;;2.05;1.02;;;;;;;;;;20993838;28;20075;-69
2021/10/23 14:32:32;;;;;;;3.30;1.10;;;;;;;;;;21037292;28;20036;-64
2021/10/23 14:42:34;;;;;;;7.68;1.50;;;;;;;;;;21114623;28;20496;-56
2021/10/23 14:52:36;;;;;;;11.02;7.75;;;;;;;;;;21089153;28;20480;-61
2021/10/23 15:02:38;;;;;;;4.07;1.15;;;;;;;;;;21088447;28;20496;-60
2021/10/23 15:12:39;;;;;;;2.65;1.10;;;;;;;;;;21079987;28;20075;-61
2021/10/23 15:22:42;;;;;;;4.25;1.10;;;;;;;;;;21087156;28;20499;-63
2021/10/23 15:32:45;;;;;;;2.30;0.70;;;;;;;;;;21076282;28;20044;-61
2021/10/23 15:42:48;;;;;;;3.00;1.47;;;;;;;;;;21085237;28;20048;-61
2021/10/23 15:52:50;;;;;;;3.00;1.37;;;;;;;;;;21085144;28;20054;-61
2021/10/23 16:02:52;;;;;;;2.58;1.50;;;;;;;;;;21084333;28;20437;-60
2021/10/23 16:12:54;;;;;;;3.22;1.92;;;;;;;;;;21085676;28;20048;-59
2021/10/23 16:22:56;;;;;;;3.20;1.20;;;;;;;;;;21083632;28;20059;-58
2021/10/23 16:32:58;;;;;;;3.50;1.20;;;;;;;;;;21082645;28;20486;-61
2021/10/23 16:43:00;;;;;;;3.13;1.23;;;;;;;;;;21082228;28;20047;-61
2021/10/23 16:53:02;;;;;;;4.35;2.05;;;;;;;;;;21080532;28;20048;-58
2021/10/23 17:03:06;;;;;;;18.38;16.00;;;;;;;;;;21080462;28;20093;-58
2021/10/23 17:13:08;;;;;;;4.65;2.92;;;;;;;;;;21078748;28;20063;-58
2021/10/23 17:23:16;;;;;;;6.38;3.70;;;;;;;;;;21079726;28;20055;-59
2021/10/23 17:33:18;;;;;;;5.45;3.47;;;;;;;;;;21079276;28;20412;-61
2021/10/23 17:43:21;;;;;;;6.75;3.53;;;;;;;;;;21077735;28;20052;-60
2021/10/23 17:53:23;;;;;;;11.48;3.28;;;;;;;;;;21077355;28;20094;-60
2021/10/23 18:03:25;;;;;;;9.27;4.00;;;;;;;;;;21079638;28;20044;-61
2021/10/23 18:13:34;;;;;;;4.13;3.30;;;;;;;;;;21093077;28;20468;-59
2021/10/23 18:23:36;;;;;;;10.95;3.65;;;;;;;;;;21062871;28;20052;-56
2021/10/23 18:33:39;;;;;;;10.10;3.83;;;;;;;;;;21018658;28;20405;-64
2021/10/23 18:43:40;;;;;;;8.68;4.25;;;;;;;;;;21007781;28;20055;-65
2021/10/23 18:53:42;;;;;;;12.55;5.43;;;;;;;;;;21006843;28;20071;-62
2021/10/23 19:03:45;;;;;;;12.43;5.45;;;;;;;;;;21005752;28;20435;-65
2021/10/23 19:13:47;;;;;;;13.63;8.02;;;;;;;;;;21005428;28;20175;-64
2021/10/23 19:23:49;;;;;;;16.63;8.27;;;;;;;;;;21003903;28;20413;-65
2021/10/23 19:33:51;;;;;;;12.23;6.68;;;;;;;;;;21003529;28;20048;-65
2021/10/23 19:43:53;;;;;;;13.30;6.55;;;;;;;;;;21003239;28;20056;-65
2021/10/23 19:53:55;;;;;;;13.65;6.85;;;;;;;;;;21001626;28;20619;-65
2021/10/23 20:03:57;;;;;;;14.02;7.35;;;;;;;;;;21000366;28;20399;-65
2021/10/23 20:13:59;;;;;;;20.92;10.30;;;;;;;;;;20999775;28;20048;-61
2021/10/23 20:24:01;;;;;;;22.27;11.25;;;;;;;;;;20998822;28;20584;-63
2021/10/23 20:34:04;;;;;;;14.25;6.93;;;;;;;;;;21025887;28;20048;-60
2021/10/23 20:44:08;;;;;;;10.80;6.22;;;;;;;;;;21000518;28;20059;-59
2021/10/23 20:54:10;;;;;;;35.53;18.80;;;;;;;;;;20997222;28;20127;-63
2021/10/23 21:04:12;;;;;;;9.85;5.20;;;;;;;;;;20996406;28;20052;-66
2021/10/23 21:14:14;;;;;;;8.40;4.28;;;;;;;;;;20995524;28;20089;-63
2021/10/23 21:24:15;;;;;;;7.97;4.75;;;;;;;;;;20995022;28;20060;-62
2021/10/23 21:34:17;;;;;;;10.32;4.60;;;;;;;;;;20994960;28;20041;-64
2021/10/23 21:44:19;;;;;;;8.55;3.20;;;;;;;;;;20993683;28;20091;-63
2021/10/23 21:54:21;;;;;;;7.57;2.70;;;;;;;;;;20994304;28;20106;-62
2021/10/23 22:04:22;;;;;;;10.60;2.47;;;;;;;;;;20994528;28;20076;-59
2021/10/23 22:14:24;;;;;;;4.68;2.10;;;;;;;;;;20994133;28;20056;-63
2021/10/23 22:24:27;;;;;;;5.05;2.20;;;;;;;;;;20993107;28;20048;-62
2021/10/23 22:34:29;;;;;;;6.20;2.00;;;;;;;;;;20992914;28;20044;-62
2021/10/23 22:44:33;;;;;;;5.88;1.80;;;;;;;;;;20992734;28;20059;-64
2021/10/23 22:54:35;;;;;;;6.70;1.90;;;;;;;;;;21003562;28;20079;-65
2021/10/23 23:04:36;;;;;;;7.07;2.45;;;;;;;;;;21006269;28;20052;-60
2021/10/23 23:14:39;;;;;;;6.28;2.72;;;;;;;;;;21006218;28;20052;-61
2021/10/23 23:24:41;;;;;;;5.10;2.78;;;;;;;;;;21005010;28;20052;-63
2021/10/23 23:34:43;;;;;;;5.93;2.28;;;;;;;;;;21004685;28;20142;-60
2021/10/23 23:44:46;;;;;;;7.28;2.55;;;;;;;;;;20985754;28;20078;-60
2021/10/23 23:54:48;;;;;;;7.80;3.10;;;;;;;;;;21004211;28;20417;-62
